CheckWX is a tool to help pilots better visualize weather data.  It is not intended as a substitute for an official pre-flight weather briefing.

21:50:47 UTC

LIRZ TAF
Perugia San Francesco d'Assisi – Umbria International Airport
Perugia, Italy
TAF LIRZ 201700Z 2018/2118 02015G25KT 9999 FEW040 BECMG 2018/2020 03013KT

Mar-20@
18:00 UTC

Mar-20 @ 18:00 UTC

Mar-21@
18:00 UTC

Mar-21 @ 18:00 UTC

TAF LIRZ 201700Z 2018/2118 02015G25KT 9999 FEW040
Wind
  • 020° at 15 KTS
  • {Gusting to 25 KTS
Cloud Levels
  • Few at 4,000' AGL

Mar-20@
18:00 UTC

Mar-20 @ 18:00 UTC

Mar-21@
18:00 UTC

Mar-21 @ 18:00 UTC

BECMG 2018/2020 03013KT

Becoming

Becoming Conditions expected by Wed, Mar 20, 2019 @ 20:00 UTC

Wind
  • 030° at 13 KTS
Cloud Levels
  • Few at 4,000' AGL